createdAt,value
2022-12-02T00:51:14.455Z,29.25
2022-12-02T00:52:18.505Z,29.31
2022-12-02T00:53:24.610Z,32.69
2022-12-02T00:54:28.523Z,9.56
2022-12-02T00:55:32.493Z,24.06
2022-12-02T00:56:37.508Z,16.37
2022-12-02T00:57:41.724Z,18.33
2022-12-02T00:58:45.851Z,15.88
2022-12-02T00:59:49.995Z,16.69
2022-12-02T01:00:54.329Z,14.50
2022-12-02T01:01:58.621Z,15.56
2022-12-02T01:03:02.923Z,18.44
2022-12-02T01:04:07.134Z,13.94
2022-12-02T01:05:11.298Z,11.69
2022-12-02T01:06:16.050Z,12.69
2022-12-02T01:07:20.312Z,14.06
2022-12-02T01:08:24.443Z,17.94
2022-12-02T01:09:28.571Z,14.69
2022-12-02T01:10:32.656Z,16.81
2022-12-02T01:11:36.701Z,13.25
2022-12-02T01:12:40.896Z,13.56
2022-12-02T01:13:45.623Z,11.31
2022-12-02T01:14:50.392Z,15.31
2022-12-02T01:15:55.268Z,12.19
2022-12-02T01:16:59.618Z,11.88
2022-12-02T01:18:03.912Z,17.50
2022-12-02T01:19:08.051Z,13.56
2022-12-02T01:20:13.079Z,15.19
2022-12-02T01:21:17.176Z,11.75
2022-12-02T01:22:21.437Z,13.75
2022-12-02T01:23:25.605Z,4.44
2022-12-02T01:24:29.625Z,8.31
2022-12-02T01:25:33.653Z,11.19
2022-12-02T01:26:37.907Z,8.94
2022-12-02T01:27:42.090Z,9.81
2022-12-02T01:28:46.244Z,10.00
2022-12-02T01:29:50.247Z,9.38
2022-12-02T01:30:54.352Z,11.06
2022-12-02T01:31:58.574Z,12.37
2022-12-02T01:33:02.867Z,11.63
2022-12-02T01:34:07.034Z,12.50
2022-12-02T01:35:13.061Z,11.19
2022-12-02T01:36:17.232Z,10.44
2022-12-02T01:37:21.269Z,10.88
2022-12-02T01:38:25.319Z,8.94
2022-12-02T01:39:29.295Z,10.38
2022-12-02T01:40:33.780Z,10.31
2022-12-02T01:41:37.900Z,7.00
2022-12-02T01:42:42.987Z,10.56
2022-12-02T01:43:47.448Z,10.75
2022-12-02T01:44:51.923Z,11.12
2022-12-02T04:07:28.662Z,21.00
2022-12-02T04:08:32.815Z,17.19
2022-12-02T04:09:36.940Z,19.25
2022-12-02T04:10:40.952Z,18.00
2022-12-02T04:11:44.982Z,20.94
2022-12-02T04:12:49.138Z,20.81
2022-12-02T04:13:53.436Z,19.31
2022-12-02T04:14:57.469Z,17.37
2022-12-02T04:16:01.703Z,18.25
2022-12-02T04:17:08.285Z,21.67
2022-12-02T04:18:12.059Z,16.44
2022-12-02T04:19:16.267Z,13.38
2022-12-02T04:20:22.136Z,14.44
2022-12-02T04:21:26.350Z,13.94
2022-12-02T04:22:30.480Z,15.13
2022-12-02T04:23:35.874Z,16.62
2022-12-02T04:24:40.121Z,17.81
2022-12-02T04:25:44.249Z,13.00
2022-12-02T04:26:48.201Z,14.06
2022-12-02T04:27:52.226Z,16.73
2022-12-02T04:28:56.256Z,16.31
2022-12-02T04:30:00.381Z,15.31
2022-12-02T04:31:04.507Z,16.00
2022-12-02T04:32:09.231Z,14.87
2022-12-02T04:33:13.396Z,19.25
2022-12-02T04:34:17.588Z,15.94
2022-12-02T04:35:23.308Z,21.47
2022-12-02T04:36:27.453Z,10.75
2022-12-02T04:37:31.646Z,16.87
2022-12-02T04:38:35.763Z,16.94
2022-12-02T04:39:40.019Z,17.06
2022-12-02T04:40:44.273Z,16.37
2022-12-02T04:41:48.248Z,15.63
2022-12-02T04:42:52.539Z,18.25
2022-12-02T04:43:56.933Z,12.56
2022-12-02T04:45:02.377Z,13.56
2022-12-02T04:46:06.741Z,11.69
2022-12-02T04:47:10.822Z,9.13
2022-12-02T04:48:14.927Z,14.44
2022-12-02T04:49:18.923Z,11.19
2022-12-02T04:50:23.024Z,14.25
2022-12-02T04:51:27.215Z,12.06
2022-12-02T04:52:31.240Z,16.06
2022-12-02T04:53:35.274Z,16.12
2022-12-02T04:54:39.346Z,13.81
2022-12-02T04:55:43.319Z,13.56
2022-12-02T04:56:47.340Z,14.06
2022-12-02T04:57:51.430Z,13.00
2022-12-02T04:58:55.482Z,15.88
2022-12-02T04:59:59.549Z,15.38
2022-12-02T05:01:03.716Z,16.87
2022-12-02T05:02:07.862Z,16.37
2022-12-02T05:03:12.158Z,8.94
2022-12-02T05:04:16.321Z,18.37
2022-12-02T05:05:20.520Z,17.93
2022-12-02T05:06:26.149Z,14.63
2022-12-02T05:07:30.208Z,15.38
2022-12-02T05:08:34.318Z,16.06
2022-12-02T05:09:49.032Z,15.56
2022-12-02T05:10:53.417Z,18.25
2022-12-02T05:11:57.554Z,16.12
2022-12-02T05:13:10.812Z,18.06
2022-12-02T05:14:14.943Z,16.87
2022-12-02T05:15:19.325Z,15.06
2022-12-02T05:16:23.433Z,15.88
2022-12-02T05:17:29.101Z,15.50
2022-12-02T05:18:38.936Z,14.38
2022-12-02T05:19:43.017Z,14.94
2022-12-02T05:20:50.217Z,15.00
2022-12-02T05:21:56.958Z,10.56
2022-12-02T05:24:32.187Z,11.19
2022-12-02T05:25:38.373Z,13.00
2022-12-02T05:26:48.875Z,8.31
2022-12-02T05:27:55.849Z,13.13
2022-12-02T05:29:05.436Z,14.00
2022-12-02T05:30:13.464Z,12.50
2022-12-02T05:31:17.526Z,13.31
2022-12-02T05:32:26.550Z,10.25
2022-12-02T05:33:32.316Z,12.63
2022-12-02T05:34:36.558Z,8.69
2022-12-02T05:35:42.260Z,10.38
2022-12-02T05:36:46.422Z,6.06
2022-12-02T05:37:50.845Z,13.50
2022-12-02T05:38:55.180Z,14.06
2022-12-02T05:40:01.573Z,13.25
2022-12-02T05:41:05.855Z,13.62
2022-12-02T05:42:13.051Z,15.88
2022-12-02T05:43:24.774Z,10.81
2022-12-02T05:44:39.670Z,13.06
2022-12-02T05:45:41.499Z,16.12
2022-12-02T05:46:45.803Z,13.50
2022-12-02T05:47:56.317Z,15.00
2022-12-02T05:49:08.306Z,13.50
2022-12-02T05:50:14.728Z,8.81
2022-12-02T05:51:24.672Z,6.87
2022-12-02T05:52:29.988Z,14.13
2022-12-02T05:53:35.878Z,17.25
2022-12-02T05:54:40.173Z,15.94
2022-12-02T05:55:44.272Z,12.63
2022-12-02T05:56:49.326Z,19.94
2022-12-02T05:57:56.499Z,16.37
2022-12-02T05:59:03.194Z,21.13
2022-12-02T06:00:16.267Z,21.12
2022-12-02T06:01:46.314Z,12.00
2022-12-02T06:02:59.482Z,14.81
2022-12-02T06:04:04.783Z,15.19
2022-12-02T06:05:38.974Z,16.56
2022-12-02T06:06:43.240Z,12.00
2022-12-02T06:07:49.324Z,15.31
2022-12-02T06:08:56.857Z,13.38
2022-12-02T06:10:01.195Z,12.94
2022-12-02T06:11:08.296Z,17.19
2022-12-02T06:12:28.916Z,8.94
2022-12-02T06:13:35.139Z,9.31
2022-12-02T06:14:40.922Z,12.00
2022-12-02T06:15:46.664Z,12.69
2022-12-02T06:16:54.456Z,11.69
2022-12-02T06:17:58.695Z,13.38
2022-12-02T06:19:05.861Z,10.69
2022-12-02T06:20:15.764Z,14.94
2022-12-02T06:21:22.552Z,16.56
2022-12-02T06:22:34.949Z,11.44
2022-12-02T06:23:48.569Z,35.93
2022-12-02T06:24:55.990Z,16.00
2022-12-02T06:26:00.720Z,14.13
2022-12-02T06:27:06.473Z,15.73
2022-12-02T06:28:28.591Z,12.75
2022-12-02T06:29:35.074Z,13.94
2022-12-02T06:30:41.770Z,20.44
2022-12-02T06:31:46.303Z,16.06
2022-12-02T06:32:56.228Z,14.80
2022-12-02T06:34:06.040Z,23.94
2022-12-02T06:35:22.984Z,14.33
2022-12-02T06:36:29.710Z,16.06
2022-12-02T06:37:34.156Z,14.50
2022-12-02T06:38:44.154Z,22.53
2022-12-02T06:40:20.040Z,19.87
2022-12-02T06:40:55.825Z,23.06
2022-12-02T06:42:01.753Z,23.00
2022-12-02T06:43:14.495Z,26.87
2022-12-02T06:44:26.767Z,21.50
2022-12-02T06:45:36.593Z,27.50
2022-12-02T06:46:40.787Z,29.37
2022-12-02T06:47:50.868Z,23.25
2022-12-02T06:48:55.266Z,25.75
2022-12-02T06:50:08.499Z,22.13
2022-12-02T06:51:21.415Z,23.56
2022-12-02T06:52:25.642Z,17.56
2022-12-02T06:53:35.752Z,23.50
2022-12-02T06:54:46.715Z,27.75
2022-12-02T06:55:58.712Z,15.88
2022-12-02T06:57:03.309Z,21.06
2022-12-02T06:58:19.188Z,16.94
2022-12-02T06:59:24.677Z,20.31
2022-12-02T07:00:32.211Z,20.75
2022-12-02T07:01:44.568Z,25.81
2022-12-02T07:02:49.128Z,15.44
2022-12-02T07:04:02.240Z,15.56
2022-12-02T07:05:06.608Z,9.63
2022-12-02T07:06:22.639Z,16.56
2022-12-02T07:07:31.856Z,22.56
2022-12-02T07:08:36.272Z,22.56
2022-12-02T07:09:43.207Z,17.73
2022-12-02T07:10:48.691Z,21.44
2022-12-02T07:11:54.797Z,16.69
2022-12-02T07:13:01.394Z,18.12
2022-12-02T07:14:05.699Z,18.12
2022-12-02T07:15:24.615Z,14.87
2022-12-02T07:16:36.743Z,13.75
2022-12-02T07:17:43.485Z,19.44
2022-12-02T07:18:56.450Z,12.19
2022-12-02T07:20:09.548Z,14.06
2022-12-02T07:21:16.674Z,17.81
2022-12-02T07:22:26.210Z,10.94
2022-12-02T07:23:30.351Z,12.56
2022-12-02T07:24:34.616Z,11.12
2022-12-02T07:25:49.539Z,9.94
2022-12-02T07:27:02.370Z,12.44
2022-12-02T07:28:22.989Z,10.25
2022-12-02T07:29:31.415Z,8.75
2022-12-02T07:30:38.690Z,10.94
2022-12-02T07:31:43.514Z,10.56
2022-12-02T07:32:47.587Z,11.60
2022-12-02T07:33:51.923Z,10.38
2022-12-02T07:34:56.227Z,10.94
2022-12-02T07:36:00.377Z,12.25
2022-12-02T07:37:04.560Z,7.75
2022-12-02T07:38:08.683Z,9.81
2022-12-02T07:39:12.788Z,9.88
2022-12-02T07:40:18.387Z,9.69
2022-12-02T07:41:22.635Z,11.31
2022-12-02T07:42:26.890Z,9.81
2022-12-02T07:43:31.929Z,11.69
2022-12-02T07:44:36.085Z,8.19
2022-12-02T08:29:28.831Z,11.25
2022-12-02T08:30:33.302Z,10.94
2022-12-02T08:31:41.288Z,12.50
2022-12-02T08:32:47.288Z,12.63
2022-12-02T08:33:52.574Z,9.88
2022-12-02T08:34:57.111Z,11.63
2022-12-02T08:36:01.681Z,9.81
2022-12-02T08:37:10.869Z,13.75
2022-12-02T08:38:21.634Z,12.06
2022-12-02T08:39:28.181Z,13.13
2022-12-02T08:40:36.145Z,10.75
2022-12-02T08:41:42.262Z,12.31
2022-12-02T08:42:48.672Z,13.31
2022-12-02T08:43:55.328Z,10.44
2022-12-02T08:45:01.850Z,12.75
2022-12-02T09:58:53.412Z,10.94
2022-12-02T10:00:04.478Z,11.81
2022-12-02T10:01:14.571Z,8.13
2022-12-02T10:02:44.349Z,12.31
2022-12-02T13:56:29.987Z,18.19
2022-12-02T13:59:04.876Z,19.50
2022-12-02T14:00:10.684Z,14.19
2022-12-02T14:01:16.407Z,16.62
2022-12-02T14:02:20.626Z,22.19
2022-12-02T14:03:27.863Z,24.25
2022-12-02T14:05:49.413Z,23.06
2022-12-02T14:05:55.296Z,17.37
2022-12-02T14:06:54.646Z,18.37
2022-12-02T14:22:47.893Z,18.62
2022-12-02T14:23:51.931Z,17.60
2022-12-02T14:24:56.244Z,15.88
2022-12-02T14:26:01.884Z,12.63
2022-12-02T14:27:07.458Z,21.31
2022-12-02T14:28:17.930Z,15.56
2022-12-02T14:29:20.424Z,16.93
2022-12-02T14:30:24.459Z,15.88
2022-12-02T14:31:28.647Z,16.44
2022-12-02T14:32:32.739Z,15.94
2022-12-02T14:34:09.659Z,18.87
2022-12-02T14:34:43.994Z,19.62
2022-12-02T14:49:07.063Z,14.56
2022-12-02T14:50:01.229Z,18.56
2022-12-02T14:51:06.912Z,16.00
2022-12-02T14:52:12.364Z,16.00
2022-12-02T14:53:17.572Z,16.44
2022-12-02T14:54:25.402Z,14.87
2022-12-02T14:55:35.823Z,13.13
2022-12-02T15:00:06.192Z,16.12
2022-12-02T15:01:00.312Z,20.12
2022-12-02T15:02:05.946Z,15.00
2022-12-02T15:03:10.102Z,16.81
2022-12-02T15:04:15.741Z,22.62
2022-12-02T15:05:23.345Z,18.87
2022-12-02T15:06:27.394Z,19.94
2022-12-02T15:07:34.184Z,18.69
2022-12-02T15:08:39.836Z,18.37
2022-12-02T15:09:43.873Z,18.56
2022-12-02T15:10:47.993Z,18.19
2022-12-02T15:11:54.042Z,18.87
2022-12-02T15:12:59.998Z,22.75
2022-12-02T15:14:05.254Z,20.62
2022-12-02T15:15:36.955Z,19.56
2022-12-02T15:16:24.015Z,20.06
2022-12-02T15:17:23.300Z,19.00
2022-12-02T15:18:28.909Z,17.62
2022-12-02T15:19:34.441Z,26.19
2022-12-02T15:20:38.441Z,21.75
2022-12-02T15:21:42.563Z,20.44
2022-12-02T15:22:49.555Z,16.50
2022-12-02T15:23:53.693Z,14.87
2022-12-02T15:25:04.986Z,17.06
2022-12-02T15:27:02.435Z,17.31
2022-12-02T15:27:26.183Z,18.00
2022-12-02T15:28:30.840Z,22.44
2022-12-02T15:29:36.465Z,16.56
2022-12-02T15:30:50.399Z,19.44
2022-12-02T15:31:51.382Z,22.00
2022-12-02T15:32:55.437Z,23.44
2022-12-02T15:34:02.387Z,21.94
2022-12-02T15:35:15.308Z,24.81
2022-12-02T15:38:58.670Z,23.94
2022-12-02T15:40:22.236Z,20.06
2022-12-02T15:41:01.395Z,23.50
2022-12-02T15:42:07.036Z,29.67
2022-12-02T15:43:11.055Z,16.69
2022-12-02T15:44:23.277Z,26.75
2022-12-02T15:45:25.599Z,23.75
2022-12-02T15:46:31.382Z,21.56
2022-12-02T15:49:10.173Z,20.19
2022-12-02T15:50:25.157Z,22.13
2022-12-02T15:52:32.186Z,19.81
2022-12-02T15:53:36.345Z,21.25
2022-12-02T15:54:46.993Z,20.12
2022-12-02T15:54:47.543Z,21.50
2022-12-02T15:55:47.755Z,22.44
2022-12-02T15:57:00.299Z,24.81
2022-12-02T15:58:01.190Z,18.31
2022-12-02T15:59:05.250Z,21.87
2022-12-02T16:00:11.060Z,21.20
2022-12-02T16:01:15.300Z,17.12
2022-12-02T16:02:25.018Z,20.06
2022-12-02T16:03:31.938Z,23.44
2022-12-02T16:04:39.816Z,18.25
2022-12-02T16:05:43.888Z,21.37
2022-12-02T16:06:59.332Z,26.69
2022-12-02T16:08:05.234Z,26.50
2022-12-02T16:09:15.695Z,24.25
2022-12-02T16:10:24.598Z,31.37
2022-12-02T16:11:26.946Z,26.50
2022-12-02T16:15:56.381Z,27.19
2022-12-02T16:46:53.193Z,28.75
2022-12-02T16:47:57.236Z,28.56
2022-12-02T16:49:02.786Z,29.06
2022-12-02T16:50:07.321Z,28.31
2022-12-02T16:51:21.108Z,25.81
2022-12-02T17:22:28.083Z,22.00
2022-12-02T17:52:28.530Z,16.44
2022-12-02T17:53:32.645Z,14.81
2022-12-02T17:54:38.749Z,15.56
2022-12-02T17:57:30.514Z,11.50
